Terminal Aerodrome Forecast
Issued by NWS Jackson, MS

Home | Current Version | Previous Version | Text Only | Print | Product List | Glossary On
Versions: 1 2 3 4 5 6 7 8 9 10 11 12
000
FTUS44 KJAN 260520
TAFGLH
TAF
KGLH 260520Z 2606/2706 19009KT P6SM BKN040
     FM260900 17011KT P6SM OVC025
     FM261200 18015G23KT P6SM OVC015
     FM262100 18025G33KT P6SM VCSH OVC050
     FM270000 21026G35KT 4SM TSRA BR OVC025CB
     FM270200 26022G30KT P6SM -RA OVC015=

USA.gov is the U.S. government's official web portal to all federal, state and local government web resources and services.